sensor_id;sensor_type;location;lat;lon;timestamp;temperature;humidity
4872;DHT22;2450;47.040;8.316;2023-12-22T18:41:21;25.40;99.90
4872;DHT22;2450;47.040;8.316;2023-12-22T18:43:47;26.70;99.90
4872;DHT22;2450;47.040;8.316;2023-12-22T18:46:13;27.60;99.90
4872;DHT22;2450;47.040;8.316;2023-12-22T18:48:41;28.40;99.90
4872;DHT22;2450;47.040;8.316;2023-12-22T18:51:12;28.50;99.90
4872;DHT22;2450;47.040;8.316;2023-12-22T18:53:38;29.00;99.90
4872;DHT22;2450;47.040;8.316;2023-12-22T18:56:04;29.30;99.20
4872;DHT22;2450;47.040;8.316;2023-12-22T18:58:29;29.70;98.10
4872;DHT22;2450;47.040;8.316;2023-12-22T19:00:55;29.80;97.30
4872;DHT22;2450;47.040;8.316;2023-12-22T19:03:21;29.90;96.60
4872;DHT22;2450;47.040;8.316;2023-12-22T19:05:46;30.00;96.10
4872;DHT22;2450;47.040;8.316;2023-12-22T19:08:12;30.20;95.50
4872;DHT22;2450;47.040;8.316;2023-12-22T19:10:37;30.20;95.20
4872;DHT22;2450;47.040;8.316;2023-12-22T19:13:03;30.20;94.80
4872;DHT22;2450;47.040;8.316;2023-12-22T19:15:29;30.30;94.50
4872;DHT22;2450;47.040;8.316;2023-12-22T19:17:54;30.10;94.50
4872;DHT22;2450;47.040;8.316;2023-12-22T19:20:20;30.20;94.30
4872;DHT22;2450;47.040;8.316;2023-12-22T19:22:45;30.40;94.30
4872;DHT22;2450;47.040;8.316;2023-12-22T19:25:11;30.20;93.80
4872;DHT22;2450;47.040;8.316;2023-12-22T19:27:37;30.10;93.80
4872;DHT22;2450;47.040;8.316;2023-12-22T19:30:03;30.10;93.70
4872;DHT22;2450;47.040;8.316;2023-12-22T19:32:29;30.00;93.70
4872;DHT22;2450;47.040;8.316;2023-12-22T19:34:55;30.10;93.60
4872;DHT22;2450;47.040;8.316;2023-12-22T19:37:20;30.10;93.50
4872;DHT22;2450;47.040;8.316;2023-12-22T19:39:46;30.10;93.40
4872;DHT22;2450;47.040;8.316;2023-12-22T19:42:12;30.20;93.20
4872;DHT22;2450;47.040;8.316;2023-12-22T19:44:38;30.20;93.10
4872;DHT22;2450;47.040;8.316;2023-12-22T19:47:04;30.20;93.00
4872;DHT22;2450;47.040;8.316;2023-12-22T19:49:30;30.00;93.00
4872;DHT22;2450;47.040;8.316;2023-12-22T19:51:55;30.10;93.10
4872;DHT22;2450;47.040;8.316;2023-12-22T19:54:22;30.10;92.90
4872;DHT22;2450;47.040;8.316;2023-12-22T19:56:47;30.10;92.90
4872;DHT22;2450;47.040;8.316;2023-12-22T19:59:13;30.10;92.90
4872;DHT22;2450;47.040;8.316;2023-12-22T20:01:38;30.00;92.90
4872;DHT22;2450;47.040;8.316;2023-12-22T20:04:07;30.00;92.90
4872;DHT22;2450;47.040;8.316;2023-12-22T20:06:33;30.10;92.80
4872;DHT22;2450;47.040;8.316;2023-12-22T20:09:01;30.10;92.80
4872;DHT22;2450;47.040;8.316;2023-12-22T20:11:26;30.10;92.60
4872;DHT22;2450;47.040;8.316;2023-12-22T20:13:53;30.20;92.60
4872;DHT22;2450;47.040;8.316;2023-12-22T20:16:18;30.10;92.60
4872;DHT22;2450;47.040;8.316;2023-12-22T20:18:45;30.20;92.50
4872;DHT22;2450;47.040;8.316;2023-12-22T20:21:12;30.00;92.40
4872;DHT22;2450;47.040;8.316;2023-12-22T20:23:38;30.10;92.50
4872;DHT22;2450;47.040;8.316;2023-12-22T20:26:03;30.10;92.40
4872;DHT22;2450;47.040;8.316;2023-12-22T20:28:29;30.20;92.30
4872;DHT22;2450;47.040;8.316;2023-12-22T20:30:55;30.10;92.20
4872;DHT22;2450;47.040;8.316;2023-12-22T20:33:21;30.10;92.20
4872;DHT22;2450;47.040;8.316;2023-12-22T20:35:46;30.30;92.10
4872;DHT22;2450;47.040;8.316;2023-12-22T20:38:13;30.30;91.90
4872;DHT22;2450;47.040;8.316;2023-12-22T20:40:39;30.30;91.90
4872;DHT22;2450;47.040;8.316;2023-12-22T20:43:04;30.30;91.80
4872;DHT22;2450;47.040;8.316;2023-12-22T20:45:30;30.10;91.80
4872;DHT22;2450;47.040;8.316;2023-12-22T20:47:55;30.30;92.00
4872;DHT22;2450;47.040;8.316;2023-12-22T20:50:21;30.30;91.90
4872;DHT22;2450;47.040;8.316;2023-12-22T20:52:47;30.40;91.70
4872;DHT22;2450;47.040;8.316;2023-12-22T20:55:16;30.40;91.50
4872;DHT22;2450;47.040;8.316;2023-12-22T20:57:42;30.40;91.50
4872;DHT22;2450;47.040;8.316;2023-12-22T21:00:07;30.60;91.30
4872;DHT22;2450;47.040;8.316;2023-12-22T21:02:33;30.60;91.30
4872;DHT22;2450;47.040;8.316;2023-12-22T21:05:00;30.60;91.20
4872;DHT22;2450;47.040;8.316;2023-12-22T21:07:25;30.60;91.20
4872;DHT22;2450;47.040;8.316;2023-12-22T21:09:51;30.60;91.10
4872;DHT22;2450;47.040;8.316;2023-12-22T21:12:16;30.50;91.10
4872;DHT22;2450;47.040;8.316;2023-12-22T21:14:45;30.70;90.90
4872;DHT22;2450;47.040;8.316;2023-12-22T21:17:10;30.60;90.80
4872;DHT22;2450;47.040;8.316;2023-12-22T21:19:36;30.80;90.80
4872;DHT22;2450;47.040;8.316;2023-12-22T21:22:02;30.70;90.70
4872;DHT22;2450;47.040;8.316;2023-12-22T21:24:29;30.90;90.60
4872;DHT22;2450;47.040;8.316;2023-12-22T21:26:55;30.80;90.60
4872;DHT22;2450;47.040;8.316;2023-12-22T21:29:20;30.80;90.70
4872;DHT22;2450;47.040;8.316;2023-12-22T21:31:46;30.80;91.00
4872;DHT22;2450;47.040;8.316;2023-12-22T21:34:12;30.90;90.50
4872;DHT22;2450;47.040;8.316;2023-12-22T21:36:37;30.90;90.60
4872;DHT22;2450;47.040;8.316;2023-12-22T21:39:03;30.90;90.60
4872;DHT22;2450;47.040;8.316;2023-12-22T21:41:28;30.80;90.50
4872;DHT22;2450;47.040;8.316;2023-12-22T21:43:54;31.00;90.40
4872;DHT22;2450;47.040;8.316;2023-12-22T21:46:19;30.90;90.30
4872;DHT22;2450;47.040;8.316;2023-12-22T21:48:46;31.00;90.30
4872;DHT22;2450;47.040;8.316;2023-12-22T21:51:13;30.70;90.20
4872;DHT22;2450;47.040;8.316;2023-12-22T21:53:38;30.50;90.50
4872;DHT22;2450;47.040;8.316;2023-12-22T21:56:04;30.30;90.80
4872;DHT22;2450;47.040;8.316;2023-12-22T21:58:30;30.00;90.90
4872;DHT22;2450;47.040;8.316;2023-12-22T22:00:55;29.90;91.10
4872;DHT22;2450;47.040;8.316;2023-12-22T22:03:21;29.60;91.30
4872;DHT22;2450;47.040;8.316;2023-12-22T22:05:47;29.40;91.60
4872;DHT22;2450;47.040;8.316;2023-12-22T22:08:13;29.20;91.70
4872;DHT22;2450;47.040;8.316;2023-12-22T22:10:38;29.00;91.90
4872;DHT22;2450;47.040;8.316;2023-12-22T22:13:04;28.70;92.20
4872;DHT22;2450;47.040;8.316;2023-12-22T22:15:29;28.50;92.50
4872;DHT22;2450;47.040;8.316;2023-12-22T22:17:55;28.20;92.80
4872;DHT22;2450;47.040;8.316;2023-12-22T22:20:21;28.00;92.90
4872;DHT22;2450;47.040;8.316;2023-12-22T22:22:47;27.80;93.30
4872;DHT22;2450;47.040;8.316;2023-12-22T22:25:13;27.70;93.50
4872;DHT22;2450;47.040;8.316;2023-12-22T22:27:39;27.50;93.70
4872;DHT22;2450;47.040;8.316;2023-12-22T22:30:05;27.30;93.90
4872;DHT22;2450;47.040;8.316;2023-12-22T22:32:32;27.20;94.00
4872;DHT22;2450;47.040;8.316;2023-12-22T22:34:57;27.10;94.30
4872;DHT22;2450;47.040;8.316;2023-12-22T22:37:23;26.90;94.60
4872;DHT22;2450;47.040;8.316;2023-12-22T22:39:48;26.90;94.60
4872;DHT22;2450;47.040;8.316;2023-12-22T22:42:14;26.70;94.80
4872;DHT22;2450;47.040;8.316;2023-12-22T22:44:40;26.60;95.00
4872;DHT22;2450;47.040;8.316;2023-12-22T22:47:10;26.50;95.10
4872;DHT22;2450;47.040;8.316;2023-12-22T22:49:36;26.40;95.20
4872;DHT22;2450;47.040;8.316;2023-12-22T22:52:01;26.40;95.30
4872;DHT22;2450;47.040;8.316;2023-12-22T22:54:27;26.30;95.50
4872;DHT22;2450;47.040;8.316;2023-12-22T22:56:53;26.10;95.70
4872;DHT22;2450;47.040;8.316;2023-12-22T22:59:18;26.10;95.90
4872;DHT22;2450;47.040;8.316;2023-12-22T23:01:47;26.00;96.00
4872;DHT22;2450;47.040;8.316;2023-12-22T23:04:12;25.90;96.20
4872;DHT22;2450;47.040;8.316;2023-12-22T23:06:38;25.70;96.30
4872;DHT22;2450;47.040;8.316;2023-12-22T23:09:04;25.60;96.50
4872;DHT22;2450;47.040;8.316;2023-12-22T23:11:29;25.50;96.70
4872;DHT22;2450;47.040;8.316;2023-12-22T23:13:55;25.50;96.90
4872;DHT22;2450;47.040;8.316;2023-12-22T23:16:21;25.40;97.00
4872;DHT22;2450;47.040;8.316;2023-12-22T23:18:46;25.30;97.20
4872;DHT22;2450;47.040;8.316;2023-12-22T23:21:12;25.10;97.40
4872;DHT22;2450;47.040;8.316;2023-12-22T23:23:37;25.10;97.50
4872;DHT22;2450;47.040;8.316;2023-12-22T23:26:03;25.00;97.70
4872;DHT22;2450;47.040;8.316;2023-12-22T23:28:29;24.90;97.80
4872;DHT22;2450;47.040;8.316;2023-12-22T23:30:54;24.90;98.00
4872;DHT22;2450;47.040;8.316;2023-12-22T23:33:20;24.80;98.10
4872;DHT22;2450;47.040;8.316;2023-12-22T23:35:46;24.70;98.60
4872;DHT22;2450;47.040;8.316;2023-12-22T23:38:11;24.60;98.40
4872;DHT22;2450;47.040;8.316;2023-12-22T23:40:37;24.60;98.50
4872;DHT22;2450;47.040;8.316;2023-12-22T23:43:03;24.60;98.60
4872;DHT22;2450;47.040;8.316;2023-12-22T23:45:29;24.50;98.80
4872;DHT22;2450;47.040;8.316;2023-12-22T23:47:54;24.50;98.90
4872;DHT22;2450;47.040;8.316;2023-12-22T23:50:20;24.40;99.00
4872;DHT22;2450;47.040;8.316;2023-12-22T23:52:46;24.40;99.10
4872;DHT22;2450;47.040;8.316;2023-12-22T23:55:12;24.40;99.20
4872;DHT22;2450;47.040;8.316;2023-12-22T23:57:38;24.30;99.30
